Time;durP1;ratioP1;P1;durP2;ratioP2;P2;SDS_P1;SDS_P2;PMS_P1;PMS_P2;Temp;Humidity;BMP_temperature;BMP_pressure;BME280_temperature;BME280_humidity;BME280_pressure;Samples;Min_cycle;Max_cycle;Signal;HPM_P1;HPM_P2
2023/01/27 00:01:19;;;;;;;10.30;5.40;;;4.90;99.90;;;;;;5054672;28;20124;-77
2023/01/27 00:03:45;;;;;;;12.75;6.22;;;4.90;99.90;;;;;;5035870;28;20098;-78
2023/01/27 00:06:12;;;;;;;9.07;6.47;;;4.90;99.90;;;;;;5036911;28;20052;-77
2023/01/27 00:08:39;;;;;;;9.60;6.32;;;4.80;99.90;;;;;;5053962;28;20123;-78
2023/01/27 00:13:51;;;;;;;14.25;6.18;;;4.80;99.90;;;;;;5052679;28;20041;-77
2023/01/27 00:16:17;;;;;;;10.05;5.82;;;4.80;99.90;;;;;;5038278;28;20090;-77
2023/01/27 00:18:44;;;;;;;9.82;6.70;;;4.80;99.90;;;;;;5074802;28;20049;-76
2023/01/27 00:26:42;;;;;;;9.93;6.13;;;4.80;99.90;;;;;;5076761;28;20043;-78
2023/01/27 00:29:08;;;;;;;7.10;6.05;;;4.90;99.90;;;;;;5075284;28;20368;-77
2023/01/27 00:34:21;;;;;;;13.60;6.15;;;4.80;99.90;;;;;;5074750;28;20058;-76
2023/01/27 00:36:47;;;;;;;9.07;6.25;;;4.80;99.90;;;;;;5075591;28;20433;-78
2023/01/27 00:39:14;;;;;;;8.50;6.10;;;4.80;99.90;;;;;;5076342;28;20039;-78
2023/01/27 00:41:42;;;;;;;7.63;4.53;;;4.80;99.90;;;;;;5075754;28;20118;-78
2023/01/27 00:44:11;;;;;;;15.15;6.00;;;4.80;99.90;;;;;;5074586;28;20152;-76
2023/01/27 00:46:39;;;;;;;6.30;4.63;;;4.80;99.90;;;;;;5075450;28;20487;-76
2023/01/27 00:49:07;;;;;;;9.02;5.20;;;4.80;99.90;;;;;;5073934;28;20429;-77
2023/01/27 00:51:35;;;;;;;9.40;4.95;;;4.80;99.90;;;;;;5076411;28;20040;-78
2023/01/27 00:54:02;;;;;;;9.55;4.82;;;4.80;99.90;;;;;;5076455;28;20062;-77
2023/01/27 00:56:29;;;;;;;8.00;4.38;;;4.80;99.90;;;;;;5074137;28;20041;-76
2023/01/27 00:58:55;;;;;;;7.40;4.20;;;4.80;99.90;;;;;;5075749;28;20040;-76
2023/01/27 01:01:22;;;;;;;5.18;4.25;;;4.80;99.90;;;;;;5075313;28;20054;-77
2023/01/27 01:03:49;;;;;;;5.78;4.22;;;4.80;99.90;;;;;;5074012;28;20041;-78
2023/01/27 01:06:15;;;;;;;6.25;4.95;;;4.90;99.90;;;;;;5076196;28;20042;-78
2023/01/27 01:08:42;;;;;;;8.20;5.28;;;4.90;99.90;;;;;;5074691;28;20048;-78
2023/01/27 01:11:09;;;;;;;6.70;4.38;;;4.90;99.90;;;;;;5073942;28;20066;-78
2023/01/27 01:13:36;;;;;;;11.25;4.72;;;4.90;99.90;;;;;;5075751;28;20115;-78
2023/01/27 01:16:03;;;;;;;7.07;4.95;;;4.90;99.90;;;;;;5073941;28;20101;-76
2023/01/27 01:18:30;;;;;;;5.50;4.13;;;4.80;99.90;;;;;;5074329;28;20135;-77
2023/01/27 01:20:56;;;;;;;6.60;5.30;;;4.80;99.90;;;;;;5076011;28;20040;-77
2023/01/27 01:23:23;;;;;;;9.15;5.03;;;4.80;99.90;;;;;;5073772;28;20036;-77
2023/01/27 01:25:50;;;;;;;6.75;4.28;;;4.80;99.90;;;;;;5075854;28;20056;-77
2023/01/27 01:28:16;;;;;;;7.30;4.50;;;4.80;99.90;;;;;;5073996;28;20364;-76
2023/01/27 01:30:43;;;;;;;4.75;3.90;;;4.80;99.90;;;;;;5073478;28;20040;-78
2023/01/27 01:33:10;;;;;;;10.57;5.18;;;4.80;99.90;;;;;;5074651;28;20043;-77
2023/01/27 01:35:36;;;;;;;7.85;5.03;;;4.70;99.90;;;;;;5073298;28;20067;-77
2023/01/27 01:38:03;;;;;;;6.65;4.25;;;4.80;99.90;;;;;;5057492;28;20478;-79
2023/01/27 01:40:30;;;;;;;6.53;3.90;;;4.80;99.90;;;;;;5074401;28;20037;-78
2023/01/27 01:42:57;;;;;;;11.05;4.90;;;4.80;99.90;;;;;;5073212;28;20067;-78
2023/01/27 01:45:23;;;;;;;7.00;4.47;;;4.80;99.90;;;;;;5074163;28;20542;-77
2023/01/27 01:47:50;;;;;;;5.07;4.35;;;4.80;99.90;;;;;;5057369;28;20047;-77
2023/01/27 01:50:17;;;;;;;6.10;4.50;;;4.80;99.90;;;;;;5073134;28;20055;-78
2023/01/27 01:52:44;;;;;;;7.95;4.18;;;4.80;99.90;;;;;;5074226;28;20036;-77
2023/01/27 01:55:11;;;;;;;6.13;5.22;;;4.80;99.90;;;;;;5075143;28;20082;-76
2023/01/27 01:57:41;;;;;;;6.45;4.95;;;4.70;99.90;;;;;;5072625;28;20064;-77
2023/01/27 02:00:08;;;;;;;9.23;5.10;;;4.70;99.90;;;;;;5090905;28;20493;-78
2023/01/27 02:02:41;;;;;;;8.98;4.47;;;4.70;99.90;;;;;;5074384;28;20075;-78
2023/01/27 02:05:08;;;;;;;10.43;5.20;;;4.70;99.90;;;;;;5073879;28;20105;-77
2023/01/27 02:07:35;;;;;;;7.25;5.10;;;4.70;99.90;;;;;;5074517;28;20139;-78
2023/01/27 02:10:01;;;;;;;8.13;4.68;;;4.70;99.90;;;;;;5072813;28;20045;-78
2023/01/27 02:12:28;;;;;;;5.05;3.65;;;4.70;99.90;;;;;;5068654;28;20487;-78
2023/01/27 02:14:55;;;;;;;7.20;4.60;;;4.70;99.90;;;;;;5051138;28;20148;-78
2023/01/27 02:17:21;;;;;;;6.75;4.38;;;4.70;99.90;;;;;;5051175;28;20052;-77
2023/01/27 02:19:48;;;;;;;6.05;4.25;;;4.70;99.90;;;;;;5054137;28;20052;-78
2023/01/27 02:22:17;;;;;;;6.18;4.25;;;4.70;99.90;;;;;;5052684;28;20071;-76
2023/01/27 02:24:43;;;;;;;9.95;4.97;;;4.70;99.90;;;;;;5054589;28;20052;-78
2023/01/27 02:27:13;;;;;;;8.88;4.47;;;4.70;99.90;;;;;;5061714;28;20098;-77
2023/01/27 02:29:39;;;;;;;8.38;5.38;;;4.70;99.90;;;;;;5073596;28;20097;-78
2023/01/27 02:32:06;;;;;;;6.22;4.50;;;4.70;99.90;;;;;;5073771;28;20135;-78
2023/01/27 02:34:34;;;;;;;8.13;4.65;;;4.80;99.90;;;;;;5073767;28;20080;-78
2023/01/27 02:37:00;;;;;;;6.47;4.75;;;4.80;99.90;;;;;;5072459;28;20055;-77
2023/01/27 02:39:27;;;;;;;6.20;4.07;;;4.80;99.90;;;;;;5073201;28;20352;-79
2023/01/27 02:41:54;;;;;;;7.50;5.80;;;4.70;99.90;;;;;;5074521;28;20041;-77
2023/01/27 02:44:20;;;;;;;9.05;4.95;;;4.70;99.90;;;;;;5055799;28;20060;-78
2023/01/27 02:46:47;;;;;;;8.40;4.57;;;4.70;99.90;;;;;;5074545;28;20124;-78
2023/01/27 02:49:14;;;;;;;8.00;5.47;;;4.60;99.90;;;;;;5071945;28;20076;-77
2023/01/27 02:51:40;;;;;;;7.60;5.50;;;4.60;99.90;;;;;;5056777;28;20439;-76
2023/01/27 02:54:07;;;;;;;8.35;5.00;;;4.60;99.90;;;;;;5056838;28;20463;-76
2023/01/27 02:56:34;;;;;;;6.47;4.90;;;4.60;99.90;;;;;;5057217;28;20040;-78
2023/01/27 02:59:01;;;;;;;11.30;5.00;;;4.60;99.90;;;;;;5060670;28;20047;-78
2023/01/27 03:01:35;;;;;;;7.63;5.30;;;4.60;99.90;;;;;;5062086;28;20367;-77
2023/01/27 03:04:02;;;;;;;7.65;5.07;;;4.60;99.90;;;;;;5076240;28;20044;-78
2023/01/27 03:06:29;;;;;;;11.32;5.78;;;4.60;99.90;;;;;;5078458;28;20072;-78
2023/01/27 03:08:55;;;;;;;7.82;5.30;;;4.70;99.90;;;;;;5075796;28;20052;-77
2023/01/27 03:14:08;;;;;;;6.85;4.57;;;4.60;99.90;;;;;;5077222;28;20143;-77
2023/01/27 03:19:20;;;;;;;9.02;5.50;;;4.60;99.90;;;;;;5040179;28;20131;-76
2023/01/27 03:21:49;;;;;;;8.20;5.22;;;4.60;99.90;;;;;;5040398;28;20049;-77
2023/01/27 03:24:17;;;;;;;7.75;5.93;;;4.60;99.90;;;;;;5039522;28;20436;-79
2023/01/27 03:26:44;;;;;;;6.65;5.10;;;4.60;99.90;;;;;;5040378;28;20447;-77
2023/01/27 03:32:00;;;;;;;9.00;5.78;;;4.60;99.90;;;;;;5040353;28;20044;-77
2023/01/27 03:34:28;;;;;;;9.10;5.80;;;4.50;99.90;;;;;;5040301;28;20049;-76
2023/01/27 03:48:06;;;;;;;8.02;5.72;;;4.40;99.90;;;;;;5057113;28;20037;-77
2023/01/27 03:50:36;;;;;;;7.65;5.45;;;4.30;99.90;;;;;;5056523;28;20041;-77
2023/01/27 03:53:03;;;;;;;8.77;5.47;;;4.30;99.90;;;;;;5040186;28;20083;-77
2023/01/27 03:55:30;;;;;;;10.82;5.95;;;4.30;99.90;;;;;;5022827;28;20485;-76
2023/01/27 03:58:04;;;;;;;8.32;5.30;;;4.30;99.90;;;;;;5056988;28;20045;-77
2023/01/27 04:00:31;;;;;;;12.23;6.00;;;4.30;99.90;;;;;;5039864;28;20073;-77
2023/01/27 04:08:28;;;;;;;7.97;6.25;;;4.40;99.90;;;;;;5056648;28;20067;-78
2023/01/27 04:13:42;;;;;;;9.73;5.95;;;4.30;99.90;;;;;;5026500;28;20067;-76
2023/01/27 04:16:08;;;;;;;8.60;5.75;;;4.30;99.90;;;;;;5055986;28;20044;-77
2023/01/27 04:18:36;;;;;;;12.30;6.50;;;4.20;99.90;;;;;;5056470;28;20053;-77
2023/01/27 04:21:03;;;;;;;7.70;6.35;;;4.20;99.90;;;;;;5039237;28;20459;-77
2023/01/27 04:23:30;;;;;;;9.95;6.57;;;4.20;99.90;;;;;;5038416;28;20452;-76
2023/01/27 04:25:59;;;;;;;9.80;7.30;;;4.10;99.90;;;;;;5057083;28;20337;-76
2023/01/27 04:28:26;;;;;;;8.33;6.77;;;4.10;99.90;;;;;;5038932;28;20128;-77
2023/01/27 04:31:09;;;;;;;10.65;6.35;;;4.10;99.90;;;;;;5040694;28;20052;-76
2023/01/27 04:33:35;;;;;;;13.98;8.02;;;4.20;99.90;;;;;;5039009;28;20037;-77
2023/01/27 04:36:02;;;;;;;10.13;6.60;;;4.10;99.90;;;;;;5038020;28;20037;-77
2023/01/27 04:38:29;;;;;;;9.95;7.50;;;4.10;99.90;;;;;;5056243;28;20409;-78
2023/01/27 04:40:55;;;;;;;9.43;7.68;;;4.10;99.90;;;;;;5039063;28;20383;-77
2023/01/27 04:43:22;;;;;;;11.90;7.53;;;4.20;99.90;;;;;;5055538;28;20041;-78
2023/01/27 04:45:49;;;;;;;11.65;7.88;;;4.20;99.90;;;;;;5039296;28;20051;-77
2023/01/27 04:48:15;;;;;;;8.98;7.25;;;4.20;99.90;;;;;;5055938;28;20478;-78
2023/01/27 04:50:42;;;;;;;9.80;7.35;;;4.20;99.90;;;;;;5038095;28;20068;-77
2023/01/27 04:53:08;;;;;;;10.80;7.65;;;4.20;99.90;;;;;;5056376;28;20040;-77
2023/01/27 04:55:36;;;;;;;10.55;8.05;;;4.20;99.90;;;;;;5055241;28;20041;-77
2023/01/27 04:58:02;;;;;;;9.55;6.95;;;4.10;99.90;;;;;;5055863;28;20067;-77
2023/01/27 05:00:29;;;;;;;9.93;8.38;;;4.10;99.90;;;;;;5038609;28;20446;-76
2023/01/27 05:02:55;;;;;;;9.23;7.07;;;4.20;99.90;;;;;;5055030;28;20033;-78
2023/01/27 05:05:22;;;;;;;10.68;7.50;;;4.10;99.90;;;;;;5056137;28;20037;-78
2023/01/27 05:07:49;;;;;;;8.68;6.88;;;4.20;99.90;;;;;;5038550;28;20459;-76
2023/01/27 05:10:15;;;;;;;11.13;7.53;;;4.20;99.90;;;;;;5054987;28;20059;-77
2023/01/27 05:12:42;;;;;;;9.50;7.10;;;4.10;99.90;;;;;;5038712;28;20037;-76
2023/01/27 05:15:09;;;;;;;12.05;7.72;;;4.10;99.90;;;;;;5055947;28;20083;-76
2023/01/27 05:17:36;;;;;;;10.93;7.03;;;4.10;99.90;;;;;;5054140;28;20095;-77
2023/01/27 05:20:03;;;;;;;8.57;6.90;;;4.10;99.90;;;;;;5038064;28;20037;-76
2023/01/27 05:22:29;;;;;;;9.70;6.80;;;4.10;99.90;;;;;;5037879;28;20047;-76
2023/01/27 05:24:56;;;;;;;9.90;6.55;;;4.10;99.90;;;;;;5055821;28;20456;-77
2023/01/27 05:27:23;;;;;;;14.23;7.38;;;4.10;99.90;;;;;;5037830;28;20044;-77
2023/01/27 05:29:50;;;;;;;13.35;6.88;;;4.10;99.90;;;;;;5054588;28;20053;-78
2023/01/27 05:32:16;;;;;;;13.77;7.95;;;4.10;99.90;;;;;;5055727;28;20048;-77
2023/01/27 05:34:43;;;;;;;8.63;6.72;;;4.10;99.90;;;;;;5055690;28;20044;-77
2023/01/27 05:37:09;;;;;;;9.70;7.05;;;4.10;99.90;;;;;;5053998;28;20050;-76
2023/01/27 05:39:36;;;;;;;7.32;5.88;;;4.10;99.90;;;;;;5055541;28;20047;-79
2023/01/27 05:42:03;;;;;;;9.73;6.07;;;4.20;99.90;;;;;;5037826;28;20037;-78
2023/01/27 05:44:30;;;;;;;11.30;7.30;;;4.20;99.90;;;;;;5054644;28;20040;-77
2023/01/27 05:46:56;;;;;;;10.32;6.13;;;4.20;99.90;;;;;;5054877;28;20491;-77
2023/01/27 05:49:23;;;;;;;9.93;6.22;;;4.20;99.90;;;;;;5036559;28;20451;-78
2023/01/27 05:51:50;;;;;;;11.30;6.28;;;4.10;99.90;;;;;;5055337;28;20045;-77
2023/01/27 05:54:16;;;;;;;10.20;6.32;;;4.10;99.90;;;;;;5055170;28;20064;-77
2023/01/27 05:56:43;;;;;;;9.38;6.38;;;4.10;99.90;;;;;;5054225;28;20037;-78
2023/01/27 05:59:09;;;;;;;11.38;5.85;;;4.10;99.90;;;;;;5037048;28;20083;-77
2023/01/27 06:01:36;;;;;;;8.30;5.40;;;4.10;99.90;;;;;;5055051;28;20037;-77
2023/01/27 06:04:03;;;;;;;9.45;5.47;;;4.10;99.90;;;;;;5053995;28;20037;-76
2023/01/27 06:06:30;;;;;;;9.90;5.35;;;4.20;99.90;;;;;;5037911;28;20381;-77
2023/01/27 06:08:56;;;;;;;6.97;4.97;;;4.20;99.90;;;;;;5053430;28;20331;-77
2023/01/27 06:11:23;;;;;;;6.53;4.90;;;4.20;99.90;;;;;;5055069;28;20071;-77
2023/01/27 06:13:50;;;;;;;6.97;4.85;;;4.20;99.90;;;;;;5037796;28;20041;-77
2023/01/27 06:16:16;;;;;;;8.60;5.70;;;4.20;99.90;;;;;;5036228;28;20095;-77
2023/01/27 06:18:43;;;;;;;9.77;5.93;;;4.20;99.90;;;;;;5054178;28;20407;-77
2023/01/27 06:21:10;;;;;;;7.20;5.15;;;4.20;99.90;;;;;;5054803;28;20456;-76
2023/01/27 06:23:37;;;;;;;9.80;5.82;;;4.20;99.90;;;;;;5036243;28;20045;-77
2023/01/27 06:26:03;;;;;;;11.40;5.95;;;4.20;99.90;;;;;;5054614;28;20037;-78
2023/01/27 06:28:30;;;;;;;9.57;5.20;;;4.20;99.90;;;;;;5036820;28;20371;-78
2023/01/27 06:30:56;;;;;;;10.57;6.18;;;4.20;99.90;;;;;;5035347;28;20045;-77
2023/01/27 06:33:23;;;;;;;8.77;5.32;;;4.20;99.90;;;;;;5037186;28;20052;-76
2023/01/27 06:35:50;;;;;;;8.70;4.80;;;4.30;99.90;;;;;;5035915;28;20041;-77
2023/01/27 06:38:16;;;;;;;8.52;4.78;;;4.30;99.90;;;;;;5053984;28;20051;-78
2023/01/27 06:40:43;;;;;;;11.55;5.65;;;4.30;99.90;;;;;;5020540;28;20052;-78
2023/01/27 06:43:10;;;;;;;7.53;5.65;;;4.30;99.90;;;;;;5036120;28;20032;-78
2023/01/27 06:45:36;;;;;;;12.52;5.55;;;4.30;99.90;;;;;;5054480;28;20049;-77
2023/01/27 06:48:03;;;;;;;11.82;5.68;;;4.30;99.90;;;;;;5019988;28;20464;-77
2023/01/27 06:50:29;;;;;;;9.32;4.45;;;4.30;99.90;;;;;;5053383;28;20041;-77
2023/01/27 06:52:56;;;;;;;13.57;4.72;;;4.30;99.90;;;;;;5054323;28;20099;-77
2023/01/27 06:55:23;;;;;;;7.65;4.00;;;4.30;99.90;;;;;;5036973;28;20099;-77
2023/01/27 06:57:50;;;;;;;10.02;4.60;;;4.30;99.90;;;;;;5053062;28;20116;-77
2023/01/27 07:00:17;;;;;;;12.00;4.10;;;4.40;99.90;;;;;;5037123;28;20072;-79
2023/01/27 07:02:43;;;;;;;7.07;3.85;;;4.40;99.90;;;;;;5053286;28;20044;-78
2023/01/27 07:05:10;;;;;;;9.32;4.80;;;4.40;99.90;;;;;;5020396;28;20048;-77
2023/01/27 07:07:37;;;;;;;9.90;4.25;;;4.40;99.90;;;;;;5053688;28;20037;-78
2023/01/27 07:10:04;;;;;;;7.13;4.00;;;4.40;99.90;;;;;;5035593;28;20471;-77
2023/01/27 07:12:30;;;;;;;10.80;4.18;;;4.40;99.90;;;;;;5054219;28;20102;-77
2023/01/27 07:14:57;;;;;;;8.25;4.22;;;4.40;99.90;;;;;;5036687;28;20037;-78
2023/01/27 07:17:24;;;;;;;12.55;5.90;;;4.40;99.90;;;;;;5052149;28;20056;-76
2023/01/27 07:19:50;;;;;;;5.05;3.35;;;4.40;99.90;;;;;;5054084;28;20071;-77
2023/01/27 07:22:17;;;;;;;8.98;3.95;;;4.40;99.90;;;;;;5019009;28;20364;-78
2023/01/27 07:24:44;;;;;;;8.73;4.18;;;4.40;99.90;;;;;;5053885;28;20041;-77
2023/01/27 07:27:10;;;;;;;10.48;4.60;;;4.40;99.90;;;;;;5045136;28;20037;-78
2023/01/27 07:29:37;;;;;;;7.97;4.57;;;4.40;99.90;;;;;;5015518;28;20052;-76
2023/01/27 07:32:04;;;;;;;8.20;3.72;;;4.40;99.90;;;;;;5034265;28;20049;-78
2023/01/27 07:34:30;;;;;;;9.90;3.65;;;4.40;99.90;;;;;;5034143;28;20099;-76
2023/01/27 07:36:57;;;;;;;8.43;3.38;;;4.40;99.90;;;;;;5032376;28;20065;-77
2023/01/27 07:39:25;;;;;;;7.30;3.95;;;4.50;99.90;;;;;;5016747;28;20037;-76
2023/01/27 07:41:52;;;;;;;7.15;3.30;;;4.40;99.90;;;;;;5016834;28;20128;-79
2023/01/27 07:44:20;;;;;;;8.40;3.90;;;4.50;99.90;;;;;;5019139;28;20037;-77
2023/01/27 07:46:47;;;;;;;9.02;3.17;;;4.50;99.90;;;;;;5019814;28;20048;-77
2023/01/27 07:49:13;;;;;;;9.65;3.40;;;4.50;99.90;;;;;;5036559;28;20104;-77
2023/01/27 07:51:40;;;;;;;8.43;3.72;;;4.50;99.90;;;;;;5039661;28;20497;-77
2023/01/27 07:54:06;;;;;;;9.65;3.97;;;4.50;99.90;;;;;;5039845;28;20037;-76
2023/01/27 07:56:35;;;;;;;9.57;3.85;;;4.60;99.90;;;;;;5038929;28;20059;-77
2023/01/27 07:59:02;;;;;;;8.57;3.35;;;4.60;99.90;;;;;;5039880;28;20123;-78
2023/01/27 08:01:28;;;;;;;15.32;3.72;;;4.60;99.90;;;;;;5057364;28;20041;-78
2023/01/27 08:03:55;;;;;;;10.23;3.38;;;4.60;99.90;;;;;;5038892;28;20482;-77
2023/01/27 08:06:22;;;;;;;8.07;3.17;;;4.60;99.90;;;;;;5040444;28;20052;-77
2023/01/27 08:08:51;;;;;;;13.43;4.00;;;4.60;99.90;;;;;;5038283;28;20455;-78
2023/01/27 08:11:18;;;;;;;7.55;3.10;;;4.60;99.90;;;;;;5039990;28;20132;-79
2023/01/27 08:13:45;;;;;;;11.63;3.20;;;4.60;99.90;;;;;;5023392;28;20052;-76
2023/01/27 08:16:11;;;;;;;10.77;3.30;;;4.60;99.90;;;;;;5056572;28;20052;-78
2023/01/27 08:18:38;;;;;;;8.55;3.33;;;4.60;99.90;;;;;;5056935;28;20048;-78
2023/01/27 08:21:05;;;;;;;12.60;3.60;;;4.60;99.90;;;;;;5074977;28;20033;-78
2023/01/27 08:23:31;;;;;;;9.27;3.60;;;4.70;99.90;;;;;;5066507;28;20033;-77
2023/01/27 08:25:58;;;;;;;7.18;3.28;;;4.70;99.90;;;;;;5059457;28;20037;-78
2023/01/27 08:28:25;;;;;;;10.02;3.45;;;4.70;99.90;;;;;;5056132;28;20052;-77
2023/01/27 08:30:51;;;;;;;10.65;3.35;;;4.80;99.90;;;;;;5070406;28;20045;-78
2023/01/27 08:33:18;;;;;;;9.43;2.88;;;4.80;99.90;;;;;;5066179;28;20120;-77
2023/01/27 08:35:45;;;;;;;12.95;3.88;;;4.90;99.90;;;;;;5066983;28;20227;-78
2023/01/27 08:38:11;;;;;;;11.68;3.00;;;4.90;99.90;;;;;;5075041;28;20379;-78
2023/01/27 08:40:38;;;;;;;12.63;3.60;;;4.80;99.90;;;;;;5075586;28;20036;-78
2023/01/27 08:43:05;;;;;;;8.25;3.15;;;4.70;99.90;;;;;;5057719;28;20048;-78
2023/01/27 08:45:32;;;;;;;15.25;3.20;;;4.60;99.90;;;;;;5064792;28;20029;-77
2023/01/27 08:47:58;;;;;;;10.27;2.60;;;4.60;99.90;;;;;;5041446;28;20048;-79
2023/01/27 08:50:25;;;;;;;7.15;2.60;;;4.50;99.90;;;;;;5073980;28;20127;-77
2023/01/27 08:52:52;;;;;;;13.10;2.97;;;4.50;99.90;;;;;;5062260;28;20048;-77
2023/01/27 08:55:18;;;;;;;10.25;3.38;;;4.50;99.90;;;;;;5073251;28;20036;-77
2023/01/27 08:57:45;;;;;;;9.05;2.63;;;4.50;99.90;;;;;;5068760;28;20168;-78
2023/01/27 09:00:11;;;;;;;8.43;3.50;;;4.60;99.90;;;;;;5056752;28;20075;-79
2023/01/27 09:02:39;;;;;;;8.52;3.70;;;4.70;99.90;;;;;;5038258;28;20075;-78
2023/01/27 09:05:06;;;;;;;8.88;4.28;;;4.80;99.90;;;;;;5055447;28;20463;-78
2023/01/27 09:07:33;;;;;;;9.80;3.08;;;4.90;99.90;;;;;;5056313;28;20044;-78
2023/01/27 09:09:59;;;;;;;16.60;3.72;;;5.00;99.90;;;;;;5058729;28;20076;-78
2023/01/27 09:12:39;;;;;;;19.00;4.65;;;5.00;99.90;;;;;;5062196;28;20487;-77
2023/01/27 09:15:06;;;;;;;12.23;3.65;;;5.10;99.90;;;;;;5064711;28;20110;-78
2023/01/27 09:17:33;;;;;;;11.18;3.53;;;5.20;99.90;;;;;;5064432;28;20064;-77
2023/01/27 09:19:59;;;;;;;11.05;3.53;;;5.20;99.90;;;;;;5038264;28;20051;-76
2023/01/27 09:22:26;;;;;;;10.65;4.55;;;5.30;99.90;;;;;;5054995;28;20053;-77
2023/01/27 09:24:53;;;;;;;11.88;3.75;;;5.30;99.90;;;;;;5038318;28;20483;-78
2023/01/27 09:27:19;;;;;;;10.80;4.25;;;5.40;99.90;;;;;;5040136;28;20041;-78
2023/01/27 09:30:04;;;;;;;12.52;4.32;;;5.50;99.90;;;;;;5053264;28;20073;-77
2023/01/27 09:32:30;;;;;;;9.20;4.32;;;5.50;99.90;;;;;;5038055;28;20141;-77
2023/01/27 09:34:57;;;;;;;13.00;4.55;;;5.50;99.90;;;;;;5046166;28;20041;-78
2023/01/27 09:37:24;;;;;;;12.73;4.55;;;5.50;99.90;;;;;;5036737;28;20041;-78
2023/01/27 09:39:53;;;;;;;10.80;4.32;;;5.60;99.90;;;;;;5055332;28;20037;-77
2023/01/27 09:42:20;;;;;;;12.98;5.20;;;5.70;99.90;;;;;;5054538;28;20056;-77
2023/01/27 09:44:46;;;;;;;11.18;3.75;;;5.70;99.90;;;;;;5037953;28;20063;-77
2023/01/27 09:47:13;;;;;;;13.57;4.72;;;5.80;99.90;;;;;;5055458;28;20106;-78
2023/01/27 09:49:40;;;;;;;11.18;4.47;;;5.80;99.90;;;;;;5036718;28;20479;-78
2023/01/27 09:52:06;;;;;;;9.57;4.18;;;6.00;99.90;;;;;;5055399;28;20447;-76
2023/01/27 09:54:34;;;;;;;12.05;3.67;;;6.00;99.90;;;;;;5037757;28;20434;-76
2023/01/27 09:57:01;;;;;;;11.30;4.22;;;6.20;99.90;;;;;;5054309;28;20080;-76
2023/01/27 09:59:27;;;;;;;14.43;3.90;;;6.20;99.90;;;;;;5037605;28;20041;-78
2023/01/27 10:01:54;;;;;;;12.68;4.00;;;6.30;99.90;;;;;;5055114;28;20051;-77
2023/01/27 10:04:21;;;;;;;9.48;2.95;;;6.20;99.90;;;;;;5040415;28;20463;-77
2023/01/27 10:06:48;;;;;;;13.63;3.78;;;6.20;99.90;;;;;;5034922;28;20038;-77
2023/01/27 10:09:14;;;;;;;9.25;4.07;;;6.10;99.90;;;;;;5024148;28;20136;-77
2023/01/27 10:11:41;;;;;;;7.65;3.75;;;6.10;99.90;;;;;;5037439;28;20048;-78
2023/01/27 10:14:08;;;;;;;12.77;4.28;;;6.20;99.90;;;;;;5054939;28;20045;-76
2023/01/27 10:16:34;;;;;;;9.77;3.50;;;6.30;99.90;;;;;;5053551;28;20045;-77
2023/01/27 10:19:01;;;;;;;13.68;5.47;;;6.40;99.90;;;;;;5055022;28;20036;-79
2023/01/27 10:21:28;;;;;;;13.55;3.88;;;6.30;99.90;;;;;;5037454;28;20037;-77
2023/01/27 10:23:56;;;;;;;11.50;3.80;;;6.40;99.90;;;;;;5053659;28;20032;-80
2023/01/27 10:26:23;;;;;;;7.53;3.25;;;6.50;99.90;;;;;;5049544;28;20041;-77
2023/01/27 10:28:50;;;;;;;14.63;4.50;;;6.60;99.90;;;;;;5036473;28;20072;-78
2023/01/27 10:31:16;;;;;;;7.90;3.55;;;6.60;99.90;;;;;;5054405;28;20119;-79
2023/01/27 10:33:44;;;;;;;7.25;2.72;;;6.70;99.90;;;;;;5036963;28;20139;-79
2023/01/27 10:36:10;;;;;;;10.73;4.15;;;6.80;99.90;;;;;;5045059;28;20037;-78
2023/01/27 10:38:37;;;;;;;9.50;3.25;;;6.90;99.90;;;;;;5034289;28;20052;-77
2023/01/27 10:41:03;;;;;;;19.20;4.38;;;6.90;99.90;;;;;;5054148;28;20452;-78
2023/01/27 10:43:33;;;;;;;12.07;3.13;;;7.00;99.90;;;;;;5053643;28;20120;-78
2023/01/27 10:45:59;;;;;;;11.13;2.87;;;7.00;99.90;;;;;;5054288;28;20037;-79
2023/01/27 10:48:26;;;;;;;11.13;3.60;;;7.00;99.90;;;;;;5036625;28;20053;-77
2023/01/27 10:50:53;;;;;;;9.65;3.55;;;7.00;99.90;;;;;;5052985;28;20048;-78
2023/01/27 10:53:20;;;;;;;6.70;2.80;;;7.00;99.90;;;;;;5036821;28;20084;-78
2023/01/27 10:55:46;;;;;;;6.90;2.65;;;7.10;99.90;;;;;;5053150;28;20049;-78
2023/01/27 10:58:13;;;;;;;5.65;2.55;;;7.10;99.90;;;;;;5054156;28;20049;-79
2023/01/27 11:00:40;;;;;;;8.77;3.38;;;7.10;99.90;;;;;;5036005;28;20045;-80
2023/01/27 11:03:27;;;;;;;14.05;4.78;;;7.10;99.90;;;;;;5039119;28;20068;-80
2023/01/27 11:05:53;;;;;;;10.95;3.10;;;7.20;99.90;;;;;;5036972;28;20045;-79
2023/01/27 11:08:20;;;;;;;13.05;3.28;;;7.30;99.90;;;;;;5036039;28;20476;-77
2023/01/27 11:13:33;;;;;;;9.80;3.20;;;7.40;99.90;;;;;;5036746;28;20053;-77
2023/01/27 11:16:00;;;;;;;10.95;2.67;;;7.50;99.90;;;;;;5044571;28;20480;-77
2023/01/27 11:18:27;;;;;;;9.20;2.50;;;7.50;99.90;;;;;;5034158;28;20103;-83
2023/01/27 11:20:54;;;;;;;8.05;2.40;;;7.60;99.90;;;;;;5047424;28;20037;-81
2023/01/27 11:23:22;;;;;;;9.60;2.35;;;7.60;99.90;;;;;;5057229;28;20094;-82
2023/01/27 11:25:51;;;;;;;8.02;2.40;;;7.70;99.90;;;;;;5040481;28;20032;-80
2023/01/27 11:28:18;;;;;;;16.27;3.33;;;7.70;99.90;;;;;;5037567;28;20464;-80
2023/01/27 11:30:44;;;;;;;11.05;3.65;;;7.60;99.90;;;;;;5039648;28;20045;-79
2023/01/27 11:33:12;;;;;;;10.38;2.45;;;7.60;99.90;;;;;;5023567;28;20084;-79
2023/01/27 11:35:39;;;;;;;7.78;2.38;;;7.60;99.90;;;;;;5056991;28;20054;-82
2023/01/27 11:38:05;;;;;;;11.20;2.85;;;7.60;99.90;;;;;;5040174;28;20040;-84
2023/01/27 11:40:41;;;;;;;10.48;3.05;;;7.50;99.90;;;;;;5024675;28;20069;-79
2023/01/27 11:43:08;;;;;;;7.70;2.40;;;7.50;99.90;;;;;;5038758;28;20096;-80
2023/01/27 11:45:34;;;;;;;8.27;3.40;;;7.50;99.90;;;;;;5040548;28;20047;-79
2023/01/27 11:48:01;;;;;;;13.50;2.72;;;7.50;99.90;;;;;;5039924;28;20045;-79
2023/01/27 11:50:28;;;;;;;7.35;2.50;;;7.50;99.90;;;;;;5056815;28;20045;-79
2023/01/27 11:52:54;;;;;;;11.45;3.00;;;7.60;99.90;;;;;;5057507;28;20091;-78
2023/01/27 11:55:21;;;;;;;17.15;4.78;;;7.60;99.90;;;;;;5040030;28;20048;-76
2023/01/27 11:57:48;;;;;;;7.45;2.05;;;7.70;99.90;;;;;;5039097;28;20041;-76
2023/01/27 12:00:14;;;;;;;8.13;2.38;;;7.70;99.90;;;;;;5039978;28;20132;-78
2023/01/27 12:02:41;;;;;;;4.25;1.60;;;7.60;99.90;;;;;;5056912;28;20033;-79
2023/01/27 12:05:11;;;;;;;6.55;2.53;;;7.50;99.90;;;;;;5057478;28;20044;-78
2023/01/27 12:07:38;;;;;;;8.40;2.47;;;7.60;99.90;;;;;;5057221;28;20434;-77
2023/01/27 12:10:05;;;;;;;7.18;2.35;;;7.60;99.90;;;;;;5039126;28;20048;-78
2023/01/27 12:12:31;;;;;;;9.18;2.10;;;7.70;99.90;;;;;;5057313;28;20044;-79
2023/01/27 12:14:58;;;;;;;6.45;2.00;;;7.90;99.90;;;;;;5040116;28;20128;-76
2023/01/27 12:17:24;;;;;;;13.07;2.00;;;7.90;99.90;;;;;;5052332;28;20114;-74
2023/01/27 12:19:51;;;;;;;4.22;2.47;;;8.00;99.90;;;;;;5077500;28;20037;-80
2023/01/27 12:22:18;;;;;;;8.55;2.00;;;8.00;99.90;;;;;;5058974;28;20043;-77
2023/01/27 12:24:47;;;;;;;8.73;2.60;;;8.00;99.90;;;;;;5077178;28;20044;-77
2023/01/27 12:27:13;;;;;;;7.45;1.80;;;8.10;99.90;;;;;;5070085;28;20041;-75
2023/01/27 12:29:40;;;;;;;11.05;2.40;;;8.00;99.90;;;;;;5068397;28;20044;-74
2023/01/27 12:32:06;;;;;;;6.13;2.60;;;7.90;99.90;;;;;;5064615;28;20391;-77
2023/01/27 12:34:33;;;;;;;12.38;2.17;;;7.90;99.90;;;;;;5067783;28;20036;-78
2023/01/27 12:37:00;;;;;;;12.43;2.60;;;7.90;99.90;;;;;;5043543;28;20048;-78
2023/01/27 12:39:27;;;;;;;10.18;2.30;;;7.90;99.90;;;;;;5055321;28;20110;-78
2023/01/27 12:41:54;;;;;;;8.48;2.92;;;7.80;99.90;;;;;;5039298;28;20045;-78
2023/01/27 12:44:26;;;;;;;10.98;2.67;;;7.90;99.90;;;;;;5056380;28;20486;-80
2023/01/27 12:46:52;;;;;;;4.22;2.15;;;7.90;99.90;;;;;;5055850;28;20073;-78
2023/01/27 12:49:19;;;;;;;6.40;2.40;;;7.90;99.90;;;;;;5055894;28;20040;-77
2023/01/27 12:51:47;;;;;;;7.13;2.33;;;7.90;99.90;;;;;;5057390;28;20055;-76
2023/01/27 12:54:14;;;;;;;7.35;2.90;;;7.90;99.90;;;;;;5056794;28;20045;-77
2023/01/27 12:56:40;;;;;;;7.00;2.50;;;8.00;99.90;;;;;;5055479;28;20068;-78
2023/01/27 12:59:07;;;;;;;10.57;2.58;;;8.10;99.90;;;;;;5056532;28;20040;-79
2023/01/27 13:01:35;;;;;;;3.85;1.92;;;8.00;99.90;;;;;;5057414;28;20095;-76
2023/01/27 13:04:02;;;;;;;8.15;2.67;;;7.90;99.90;;;;;;5055706;28;20044;-76
2023/01/27 13:06:28;;;;;;;12.88;3.33;;;7.90;99.90;;;;;;5055787;28;20418;-77
2023/01/27 13:08:55;;;;;;;6.72;2.10;;;8.00;99.90;;;;;;5053739;28;20059;-76
2023/01/27 13:11:22;;;;;;;11.15;3.97;;;8.10;99.90;;;;;;5070215;28;20052;-77
2023/01/27 13:13:49;;;;;;;11.00;2.28;;;8.10;99.90;;;;;;5075125;28;20051;-77
2023/01/27 13:16:16;;;;;;;8.88;3.03;;;8.10;99.90;;;;;;5074334;28;20055;-78
2023/01/27 13:18:43;;;;;;;12.25;2.30;;;8.10;99.90;;;;;;5056274;28;20057;-77
2023/01/27 13:21:10;;;;;;;7.75;2.17;;;8.10;99.90;;;;;;5056034;28;20064;-77
2023/01/27 13:23:38;;;;;;;6.30;2.70;;;8.20;99.90;;;;;;5037636;28;20037;-78
2023/01/27 13:26:05;;;;;;;9.38;2.22;;;8.10;99.90;;;;;;5037953;28;20379;-79
2023/01/27 13:28:31;;;;;;;5.18;2.05;;;8.00;99.90;;;;;;5051212;28;20383;-77
2023/01/27 13:31:18;;;;;;;8.27;2.20;;;8.00;99.90;;;;;;5036130;28;20049;-77
2023/01/27 13:33:46;;;;;;;12.50;3.17;;;8.10;99.90;;;;;;5014020;28;20055;-78